SBGR/GRU METAR and TAF weather

Enter ICAO airport designator
Station Type Date Time Source
SBGR METAR 2022/01/26 19:00 UTC NOAA

SBGR 261900Z 30014KT 9999 SCT045 31/19 Q1011


Station Type Date Time Source
SBGR Decoded METAR 2022/01/26 19:00 UTC NOAA

Guarulhos Civ / Mil , Brazil (SBGR) 23-26S 046-28W
Jan 26, 2022 - 02:00 PM EST / 2022.01.26 1900 UTC
Wind: from the WNW (300 degrees) at 16 MPH (14 KT):0
Visibility: greater than 7 mile(s):0
Sky conditions: partly cloudy
Temperature: 87 F (31 C)
Dew Point: 66 F (19 C)
Relative Humidity: 48%
Pressure (altimeter): 29.85 in. Hg (1011 hPa)
ob: SBGR 261900Z 30014KT 9999 SCT045 31/19 Q1011
cycle: 19

Station Type Date Time Source
SBGR TAF 2022/01/26 18:18 UTC NOAA

TAF TAF SBGR 261600Z 2618/2724 31010KT 9999 SCT030 TX32/2618Z TN20/2709Z PROB40
TEMPO 2618/2621 TSRA BKN023 FEW030CB
BECMG 2621/2623 11003KT 8000 BKN010
BECMG 2701/2703 07005KT FEW010
BECMG 2703/2705 CAVOK PROB30 2709/2712 33008KT
BECMG 2712/2714 31010KT
BECMG 2714/2716 SCT040 FEW045TCU PROB40
TEMPO 2718/2721 TSRA BKN023 FEW030CB PROB30 2721/2724 SHRA
RMK PHH

Example: see airport list